sensor_id;sensor_type;location;lat;lon;timestamp;temperature;humidity
66119;DHT22;52912;48.564;9.302;2022-10-16T00:02:19;15.53;91.57
66119;DHT22;52912;48.564;9.302;2022-10-16T00:04:44;15.53;92.35
66119;DHT22;52912;48.564;9.302;2022-10-16T00:07:09;15.40;92.47
66119;DHT22;52912;48.564;9.302;2022-10-16T00:09:35;15.43;93.04
66119;DHT22;52912;48.564;9.302;2022-10-16T00:12:00;15.29;93.81
66119;DHT22;52912;48.564;9.302;2022-10-16T00:14:27;15.30;93.87
66119;DHT22;52912;48.564;9.302;2022-10-16T00:16:53;15.19;94.18
66119;DHT22;52912;48.564;9.302;2022-10-16T00:19:18;15.13;94.39
66119;DHT22;52912;48.564;9.302;2022-10-16T00:21:43;15.09;94.97
66119;DHT22;52912;48.564;9.302;2022-10-16T00:24:10;15.03;95.28
66119;DHT22;52912;48.564;9.302;2022-10-16T00:26:37;14.99;94.96
66119;DHT22;52912;48.564;9.302;2022-10-16T00:29:03;14.89;94.55
66119;DHT22;52912;48.564;9.302;2022-10-16T00:31:30;14.96;94.62
66119;DHT22;52912;48.564;9.302;2022-10-16T00:33:56;14.89;94.54
66119;DHT22;52912;48.564;9.302;2022-10-16T00:36:24;14.91;94.56
66119;DHT22;52912;48.564;9.302;2022-10-16T00:38:50;14.89;94.55
66119;DHT22;52912;48.564;9.302;2022-10-16T00:41:16;14.87;94.83
66119;DHT22;52912;48.564;9.302;2022-10-16T00:43:45;14.82;95.03
66119;DHT22;52912;48.564;9.302;2022-10-16T00:46:16;14.74;94.81
66119;DHT22;52912;48.564;9.302;2022-10-16T00:48:48;14.65;95.20
66119;DHT22;52912;48.564;9.302;2022-10-16T00:51:15;14.65;95.03
66119;DHT22;52912;48.564;9.302;2022-10-16T00:53:41;14.59;95.45
66119;DHT22;52912;48.564;9.302;2022-10-16T00:56:06;14.57;95.21
66119;DHT22;52912;48.564;9.302;2022-10-16T00:58:32;14.57;94.95
66119;DHT22;52912;48.564;9.302;2022-10-16T01:00:57;14.56;94.65
66119;DHT22;52912;48.564;9.302;2022-10-16T01:03:25;14.57;94.44
66119;DHT22;52912;48.564;9.302;2022-10-16T01:06:14;14.54;94.60
66119;DHT22;52912;48.564;9.302;2022-10-16T01:08:49;14.54;94.62
66119;DHT22;52912;48.564;9.302;2022-10-16T01:11:24;14.50;94.78
66119;DHT22;52912;48.564;9.302;2022-10-16T01:13:55;14.59;94.81
66119;DHT22;52912;48.564;9.302;2022-10-16T01:16:28;14.43;95.19
66119;DHT22;52912;48.564;9.302;2022-10-16T01:19:00;14.43;95.18
66119;DHT22;52912;48.564;9.302;2022-10-16T01:21:32;14.37;95.32
66119;DHT22;52912;48.564;9.302;2022-10-16T01:24:03;14.37;95.48
66119;DHT22;52912;48.564;9.302;2022-10-16T01:26:40;14.38;95.57
66119;DHT22;52912;48.564;9.302;2022-10-16T01:29:15;14.43;95.53
66119;DHT22;52912;48.564;9.302;2022-10-16T01:31:47;14.43;95.48
66119;DHT22;52912;48.564;9.302;2022-10-16T01:34:17;14.40;95.42
66119;DHT22;52912;48.564;9.302;2022-10-16T01:36:47;14.44;95.41
66119;DHT22;52912;48.564;9.302;2022-10-16T01:39:21;14.40;95.66
66119;DHT22;52912;48.564;9.302;2022-10-16T01:41:53;14.40;95.63
66119;DHT22;52912;48.564;9.302;2022-10-16T01:44:25;14.33;95.52
66119;DHT22;52912;48.564;9.302;2022-10-16T01:46:53;14.33;95.61
66119;DHT22;52912;48.564;9.302;2022-10-16T01:49:20;14.34;95.73
66119;DHT22;52912;48.564;9.302;2022-10-16T01:51:49;14.44;94.34
66119;DHT22;52912;48.564;9.302;2022-10-16T01:54:18;14.51;94.73
66119;DHT22;52912;48.564;9.302;2022-10-16T01:56:46;14.48;94.90
66119;DHT22;52912;48.564;9.302;2022-10-16T01:59:16;14.47;94.98
66119;DHT22;52912;48.564;9.302;2022-10-16T02:01:48;14.46;95.27
66119;DHT22;52912;48.564;9.302;2022-10-16T02:04:16;14.40;95.30
66119;DHT22;52912;48.564;9.302;2022-10-16T02:06:43;14.37;95.53
66119;DHT22;52912;48.564;9.302;2022-10-16T02:09:09;14.46;95.36
66119;DHT22;52912;48.564;9.302;2022-10-16T02:11:34;14.48;95.40
66119;DHT22;52912;48.564;9.302;2022-10-16T02:14:02;14.44;95.55
66119;DHT22;52912;48.564;9.302;2022-10-16T02:16:33;14.51;95.12
66119;DHT22;52912;48.564;9.302;2022-10-16T02:19:01;14.54;94.99
66119;DHT22;52912;48.564;9.302;2022-10-16T02:21:28;14.78;93.15
66119;DHT22;52912;48.564;9.302;2022-10-16T02:24:00;14.75;94.46
66119;DHT22;52912;48.564;9.302;2022-10-16T02:26:31;14.68;94.56
66119;DHT22;52912;48.564;9.302;2022-10-16T02:29:00;14.65;94.94
66119;DHT22;52912;48.564;9.302;2022-10-16T02:31:28;14.67;95.06
66119;DHT22;52912;48.564;9.302;2022-10-16T02:33:57;14.61;95.38
66119;DHT22;52912;48.564;9.302;2022-10-16T02:36:25;14.61;94.69
66119;DHT22;52912;48.564;9.302;2022-10-16T02:38:51;14.67;94.26
66119;DHT22;52912;48.564;9.302;2022-10-16T02:41:18;14.65;94.97
66119;DHT22;52912;48.564;9.302;2022-10-16T02:43:43;14.60;95.37
66119;DHT22;52912;48.564;9.302;2022-10-16T02:46:09;14.59;95.26
66119;DHT22;52912;48.564;9.302;2022-10-16T02:48:34;14.60;95.25
66119;DHT22;52912;48.564;9.302;2022-10-16T02:51:00;14.54;95.52
66119;DHT22;52912;48.564;9.302;2022-10-16T02:53:26;14.46;95.97
66119;DHT22;52912;48.564;9.302;2022-10-16T02:55:52;14.48;96.14
66119;DHT22;52912;48.564;9.302;2022-10-16T02:58:17;14.46;96.66
66119;DHT22;52912;48.564;9.302;2022-10-16T03:00:43;14.48;96.45
66119;DHT22;52912;48.564;9.302;2022-10-16T03:03:08;14.41;96.67
66119;DHT22;52912;48.564;9.302;2022-10-16T03:05:34;14.38;96.65
66119;DHT22;52912;48.564;9.302;2022-10-16T03:07:59;14.36;96.67
66119;DHT22;52912;48.564;9.302;2022-10-16T03:10:26;14.32;96.61
66119;DHT22;52912;48.564;9.302;2022-10-16T03:12:52;14.36;96.44
66119;DHT22;52912;48.564;9.302;2022-10-16T03:15:17;14.38;96.27
66119;DHT22;52912;48.564;9.302;2022-10-16T03:17:42;14.36;96.19
66119;DHT22;52912;48.564;9.302;2022-10-16T03:20:09;14.38;96.11
66119;DHT22;52912;48.564;9.302;2022-10-16T03:22:34;14.41;95.86
66119;DHT22;52912;48.564;9.302;2022-10-16T03:24:59;14.33;96.22
66119;DHT22;52912;48.564;9.302;2022-10-16T03:27:26;14.46;95.76
66119;DHT22;52912;48.564;9.302;2022-10-16T03:29:52;14.48;95.60
66119;DHT22;52912;48.564;9.302;2022-10-16T03:32:17;14.56;95.20
66119;DHT22;52912;48.564;9.302;2022-10-16T03:34:43;14.51;95.47
66119;DHT22;52912;48.564;9.302;2022-10-16T03:37:08;14.48;95.79
66119;DHT22;52912;48.564;9.302;2022-10-16T03:39:33;14.46;95.99
66119;DHT22;52912;48.564;9.302;2022-10-16T03:41:59;14.38;96.45
66119;DHT22;52912;48.564;9.302;2022-10-16T03:44:26;14.33;96.76
66119;DHT22;52912;48.564;9.302;2022-10-16T03:46:51;14.33;96.78
66119;DHT22;52912;48.564;9.302;2022-10-16T03:49:16;14.32;96.92
66119;DHT22;52912;48.564;9.302;2022-10-16T03:51:42;14.30;96.75
66119;DHT22;52912;48.564;9.302;2022-10-16T03:54:07;14.30;96.81
66119;DHT22;52912;48.564;9.302;2022-10-16T03:56:33;14.27;96.90
66119;DHT22;52912;48.564;9.302;2022-10-16T03:58:58;14.25;97.10
66119;DHT22;52912;48.564;9.302;2022-10-16T04:01:25;14.20;96.96
66119;DHT22;52912;48.564;9.302;2022-10-16T04:03:50;14.22;97.07
66119;DHT22;52912;48.564;9.302;2022-10-16T04:06:16;14.20;97.27
66119;DHT22;52912;48.564;9.302;2022-10-16T04:08:42;14.20;97.02
66119;DHT22;52912;48.564;9.302;2022-10-16T04:11:08;14.18;97.24
66119;DHT22;52912;48.564;9.302;2022-10-16T04:13:33;14.23;97.18
66119;DHT22;52912;48.564;9.302;2022-10-16T04:15:59;14.22;97.12
66119;DHT22;52912;48.564;9.302;2022-10-16T04:18:26;14.23;97.06
66119;DHT22;52912;48.564;9.302;2022-10-16T04:20:51;14.25;96.98
66119;DHT22;52912;48.564;9.302;2022-10-16T04:23:17;14.27;96.78
66119;DHT22;52912;48.564;9.302;2022-10-16T04:25:42;14.15;97.22
66119;DHT22;52912;48.564;9.302;2022-10-16T04:28:07;14.16;97.17
66119;DHT22;52912;48.564;9.302;2022-10-16T04:30:33;14.15;97.36
66119;DHT22;52912;48.564;9.302;2022-10-16T04:32:58;14.10;97.27
66119;DHT22;52912;48.564;9.302;2022-10-16T04:35:25;14.08;97.47
66119;DHT22;52912;48.564;9.302;2022-10-16T04:37:51;14.04;97.40
66119;DHT22;52912;48.564;9.302;2022-10-16T04:40:16;14.08;97.67
66119;DHT22;52912;48.564;9.302;2022-10-16T04:42:42;14.06;97.36
66119;DHT22;52912;48.564;9.302;2022-10-16T04:45:08;14.05;97.25
66119;DHT22;52912;48.564;9.302;2022-10-16T04:47:34;14.08;97.16
66119;DHT22;52912;48.564;9.302;2022-10-16T04:49:59;14.04;97.47
66119;DHT22;52912;48.564;9.302;2022-10-16T04:52:26;14.12;96.92
66119;DHT22;52912;48.564;9.302;2022-10-16T04:54:51;14.20;96.29
66119;DHT22;52912;48.564;9.302;2022-10-16T04:57:17;14.22;96.38
66119;DHT22;52912;48.564;9.302;2022-10-16T04:59:42;14.20;96.55
66119;DHT22;52912;48.564;9.302;2022-10-16T05:02:08;14.20;96.54
66119;DHT22;52912;48.564;9.302;2022-10-16T05:04:33;14.18;96.73
66119;DHT22;52912;48.564;9.302;2022-10-16T05:06:59;14.19;96.79
66119;DHT22;52912;48.564;9.302;2022-10-16T05:09:26;14.18;96.95
66119;DHT22;52912;48.564;9.302;2022-10-16T05:11:51;14.19;96.85
66119;DHT22;52912;48.564;9.302;2022-10-16T05:14:17;14.15;97.05
66119;DHT22;52912;48.564;9.302;2022-10-16T05:16:42;14.13;97.04
66119;DHT22;52912;48.564;9.302;2022-10-16T05:19:08;14.15;97.06
66119;DHT22;52912;48.564;9.302;2022-10-16T05:21:33;14.09;96.92
66119;DHT22;52912;48.564;9.302;2022-10-16T05:23:58;14.08;97.09
66119;DHT22;52912;48.564;9.302;2022-10-16T05:26:25;14.06;97.04
66119;DHT22;52912;48.564;9.302;2022-10-16T05:28:51;14.02;96.93
66119;DHT22;52912;48.564;9.302;2022-10-16T05:31:16;14.01;97.11
66119;DHT22;52912;48.564;9.302;2022-10-16T05:33:42;13.95;97.03
66119;DHT22;52912;48.564;9.302;2022-10-16T05:36:08;13.91;97.21
66119;DHT22;52912;48.564;9.302;2022-10-16T05:38:34;13.97;97.34
66119;DHT22;52912;48.564;9.302;2022-10-16T05:41:00;13.89;97.52
66119;DHT22;52912;48.564;9.302;2022-10-16T05:43:27;13.85;97.41
66119;DHT22;52912;48.564;9.302;2022-10-16T05:45:56;13.85;97.34
66119;DHT22;52912;48.564;9.302;2022-10-16T05:48:21;13.86;97.35
66119;DHT22;52912;48.564;9.302;2022-10-16T05:50:47;13.88;97.21
66119;DHT22;52912;48.564;9.302;2022-10-16T05:53:12;13.88;97.20
66119;DHT22;52912;48.564;9.302;2022-10-16T05:55:38;13.91;97.10
66119;DHT22;52912;48.564;9.302;2022-10-16T05:58:03;13.91;96.93
66119;DHT22;52912;48.564;9.302;2022-10-16T06:00:30;13.88;97.12
66119;DHT22;52912;48.564;9.302;2022-10-16T06:02:55;13.86;97.41
66119;DHT22;52912;48.564;9.302;2022-10-16T06:05:21;13.88;97.39
66119;DHT22;52912;48.564;9.302;2022-10-16T06:07:46;13.85;97.52
66119;DHT22;52912;48.564;9.302;2022-10-16T06:10:12;13.85;97.57
66119;DHT22;52912;48.564;9.302;2022-10-16T06:12:37;13.91;97.45
66119;DHT22;52912;48.564;9.302;2022-10-16T06:15:03;13.92;97.44
66119;DHT22;52912;48.564;9.302;2022-10-16T06:17:30;13.97;97.05
66119;DHT22;52912;48.564;9.302;2022-10-16T06:19:56;14.02;96.99
66119;DHT22;52912;48.564;9.302;2022-10-16T06:22:21;14.10;96.90
66119;DHT22;52912;48.564;9.302;2022-10-16T06:24:47;14.12;96.83
66119;DHT22;52912;48.564;9.302;2022-10-16T06:27:12;14.08;97.05
66119;DHT22;52912;48.564;9.302;2022-10-16T06:29:37;14.02;96.96
66119;DHT22;52912;48.564;9.302;2022-10-16T06:32:03;14.04;97.33
66119;DHT22;52912;48.564;9.302;2022-10-16T06:34:30;14.06;97.31
66119;DHT22;52912;48.564;9.302;2022-10-16T06:36:55;14.09;97.23
66119;DHT22;52912;48.564;9.302;2022-10-16T06:39:21;14.16;97.06
66119;DHT22;52912;48.564;9.302;2022-10-16T06:41:46;14.22;97.03
66119;DHT22;52912;48.564;9.302;2022-10-16T06:44:11;14.29;96.85
66119;DHT22;52912;48.564;9.302;2022-10-16T06:46:37;14.34;96.53
66119;DHT22;52912;48.564;9.302;2022-10-16T06:49:02;14.40;96.22
66119;DHT22;52912;48.564;9.302;2022-10-16T06:51:29;14.48;96.13
66119;DHT22;52912;48.564;9.302;2022-10-16T06:53:55;14.56;96.17
66119;DHT22;52912;48.564;9.302;2022-10-16T06:56:22;14.71;95.94
66119;DHT22;52912;48.564;9.302;2022-10-16T06:58:48;14.71;96.38
66119;DHT22;52912;48.564;9.302;2022-10-16T07:01:15;14.74;96.05
66119;DHT22;52912;48.564;9.302;2022-10-16T07:03:41;14.75;96.03
66119;DHT22;52912;48.564;9.302;2022-10-16T07:06:09;14.77;95.91
66119;DHT22;52912;48.564;9.302;2022-10-16T07:08:38;14.78;96.08
66119;DHT22;52912;48.564;9.302;2022-10-16T07:11:06;14.82;96.21
66119;DHT22;52912;48.564;9.302;2022-10-16T07:13:33;14.85;96.10
66119;DHT22;52912;48.564;9.302;2022-10-16T07:16:04;14.89;95.86
66119;DHT22;52912;48.564;9.302;2022-10-16T07:18:29;14.89;95.61
66119;DHT22;52912;48.564;9.302;2022-10-16T07:21:03;14.96;95.51
66119;DHT22;52912;48.564;9.302;2022-10-16T07:23:28;15.05;95.57
66119;DHT22;52912;48.564;9.302;2022-10-16T07:25:55;15.12;95.71
66119;DHT22;52912;48.564;9.302;2022-10-16T07:28:21;15.16;94.81
66119;DHT22;52912;48.564;9.302;2022-10-16T07:30:46;15.29;94.45
66119;DHT22;52912;48.564;9.302;2022-10-16T07:33:12;15.30;93.75
66119;DHT22;52912;48.564;9.302;2022-10-16T07:35:37;15.36;94.10
66119;DHT22;52912;48.564;9.302;2022-10-16T07:38:03;15.36;93.85
66119;DHT22;52912;48.564;9.302;2022-10-16T07:40:28;15.43;93.97
66119;DHT22;52912;48.564;9.302;2022-10-16T07:42:55;15.51;93.46
66119;DHT22;52912;48.564;9.302;2022-10-16T07:45:21;15.58;93.85
66119;DHT22;52912;48.564;9.302;2022-10-16T07:47:46;15.62;94.11
66119;DHT22;52912;48.564;9.302;2022-10-16T07:50:11;15.68;93.82
66119;DHT22;52912;48.564;9.302;2022-10-16T07:52:37;15.70;92.98
66119;DHT22;52912;48.564;9.302;2022-10-16T07:55:03;15.75;93.41
66119;DHT22;52912;48.564;9.302;2022-10-16T07:57:28;15.87;93.49
66119;DHT22;52912;48.564;9.302;2022-10-16T07:59:55;15.99;93.13
66119;DHT22;52912;48.564;9.302;2022-10-16T08:02:20;16.05;91.79
66119;DHT22;52912;48.564;9.302;2022-10-16T08:04:46;16.19;92.29
66119;DHT22;52912;48.564;9.302;2022-10-16T08:07:12;16.29;91.32
66119;DHT22;52912;48.564;9.302;2022-10-16T08:09:37;16.39;91.83
66119;DHT22;52912;48.564;9.302;2022-10-16T08:12:03;16.39;91.00
66119;DHT22;52912;48.564;9.302;2022-10-16T08:14:28;16.36;91.57
66119;DHT22;52912;48.564;9.302;2022-10-16T08:16:55;16.37;91.90
66119;DHT22;52912;48.564;9.302;2022-10-16T08:19:20;16.43;91.45
66119;DHT22;52912;48.564;9.302;2022-10-16T08:21:47;16.49;91.12
66119;DHT22;52912;48.564;9.302;2022-10-16T08:24:12;16.56;90.80
66119;DHT22;52912;48.564;9.302;2022-10-16T08:26:38;16.61;89.85
66119;DHT22;52912;48.564;9.302;2022-10-16T08:29:03;16.65;90.24
66119;DHT22;52912;48.564;9.302;2022-10-16T08:31:28;16.72;90.89
66119;DHT22;52912;48.564;9.302;2022-10-16T08:33:55;16.94;90.78
66119;DHT22;52912;48.564;9.302;2022-10-16T08:36:21;17.12;90.38
66119;DHT22;52912;48.564;9.302;2022-10-16T08:38:48;17.31;88.76
66119;DHT22;52912;48.564;9.302;2022-10-16T08:44:14;17.68;87.32
66119;DHT22;52912;48.564;9.302;2022-10-16T08:46:47;17.75;86.86
66119;DHT22;52912;48.564;9.302;2022-10-16T08:49:16;17.75;86.60
66119;DHT22;52912;48.564;9.302;2022-10-16T08:51:42;17.77;86.88
66119;DHT22;52912;48.564;9.302;2022-10-16T08:54:18;17.77;87.65
66119;DHT22;52912;48.564;9.302;2022-10-16T08:56:46;17.78;88.29
66119;DHT22;52912;48.564;9.302;2022-10-16T08:59:13;17.85;87.75
66119;DHT22;52912;48.564;9.302;2022-10-16T09:01:41;17.85;87.73
66119;DHT22;52912;48.564;9.302;2022-10-16T09:07:09;17.94;87.24
66119;DHT22;52912;48.564;9.302;2022-10-16T09:09:49;17.96;87.55
66119;DHT22;52912;48.564;9.302;2022-10-16T09:12:23;18.10;87.22
66119;DHT22;52912;48.564;9.302;2022-10-16T09:14:58;18.23;86.56
66119;DHT22;52912;48.564;9.302;2022-10-16T09:17:32;18.32;86.35
66119;DHT22;52912;48.564;9.302;2022-10-16T09:20:14;18.47;85.61
66119;DHT22;52912;48.564;9.302;2022-10-16T09:22:41;18.67;84.45
66119;DHT22;52912;48.564;9.302;2022-10-16T09:25:11;19.15;83.68
66119;DHT22;52912;48.564;9.302;2022-10-16T09:27:37;19.33;83.37
66119;DHT22;52912;48.564;9.302;2022-10-16T09:30:11;19.29;83.70
66119;DHT22;52912;48.564;9.302;2022-10-16T09:32:38;19.68;82.59
66119;DHT22;52912;48.564;9.302;2022-10-16T09:35:11;19.78;83.00
66119;DHT22;52912;48.564;9.302;2022-10-16T09:37:38;19.77;82.89
66119;DHT22;52912;48.564;9.302;2022-10-16T09:40:05;19.72;83.51
66119;DHT22;52912;48.564;9.302;2022-10-16T09:42:34;20.17;82.00
66119;DHT22;52912;48.564;9.302;2022-10-16T09:45:01;20.20;83.42
66119;DHT22;52912;48.564;9.302;2022-10-16T09:47:27;20.16;83.01
66119;DHT22;52912;48.564;9.302;2022-10-16T09:49:55;20.32;81.71
66119;DHT22;52912;48.564;9.302;2022-10-16T09:52:22;20.27;82.24
66119;DHT22;52912;48.564;9.302;2022-10-16T09:54:49;20.16;82.28
66119;DHT22;52912;48.564;9.302;2022-10-16T09:57:15;20.06;83.85
66119;DHT22;52912;48.564;9.302;2022-10-16T09:59:46;19.82;84.47
66119;DHT22;52912;48.564;9.302;2022-10-16T10:02:14;19.77;84.29
66119;DHT22;52912;48.564;9.302;2022-10-16T10:04:42;19.79;84.69
66119;DHT22;52912;48.564;9.302;2022-10-16T10:07:17;19.72;85.15
66119;DHT22;52912;48.564;9.302;2022-10-16T10:09:45;19.77;85.27
66119;DHT22;52912;48.564;9.302;2022-10-16T10:12:17;19.86;84.81
66119;DHT22;52912;48.564;9.302;2022-10-16T10:14:46;20.89;83.43
66119;DHT22;52912;48.564;9.302;2022-10-16T10:17:15;21.53;80.82
66119;DHT22;52912;48.564;9.302;2022-10-16T10:19:44;22.10;74.48
66119;DHT22;52912;48.564;9.302;2022-10-16T10:22:26;21.81;74.56
66119;DHT22;52912;48.564;9.302;2022-10-16T10:24:58;21.64;74.28
66119;DHT22;52912;48.564;9.302;2022-10-16T10:27:32;22.51;73.11
66119;DHT22;52912;48.564;9.302;2022-10-16T10:30:03;22.35;73.43
66119;DHT22;52912;48.564;9.302;2022-10-16T10:32:35;22.24;70.86
66119;DHT22;52912;48.564;9.302;2022-10-16T10:35:14;23.20;69.56
66119;DHT22;52912;48.564;9.302;2022-10-16T10:37:56;22.87;69.50
66119;DHT22;52912;48.564;9.302;2022-10-16T10:40:34;23.08;68.57
66119;DHT22;52912;48.564;9.302;2022-10-16T10:43:10;23.34;67.72
66119;DHT22;52912;48.564;9.302;2022-10-16T10:45:43;23.63;68.78
66119;DHT22;52912;48.564;9.302;2022-10-16T10:48:23;23.97;66.72
66119;DHT22;52912;48.564;9.302;2022-10-16T10:50:57;23.43;66.76
66119;DHT22;52912;48.564;9.302;2022-10-16T10:53:35;24.22;64.71
66119;DHT22;52912;48.564;9.302;2022-10-16T10:56:11;24.70;64.67
66119;DHT22;52912;48.564;9.302;2022-10-16T10:59:02;24.59;60.91
66119;DHT22;52912;48.564;9.302;2022-10-16T11:01:40;25.23;61.73
66119;DHT22;52912;48.564;9.302;2022-10-16T11:04:23;25.47;60.20
66119;DHT22;52912;48.564;9.302;2022-10-16T11:06:55;25.56;58.78
66119;DHT22;52912;48.564;9.302;2022-10-16T11:09:25;25.44;59.10
66119;DHT22;52912;48.564;9.302;2022-10-16T11:11:56;25.91;58.09
66119;DHT22;52912;48.564;9.302;2022-10-16T11:14:28;26.37;57.68
66119;DHT22;52912;48.564;9.302;2022-10-16T11:16:57;25.87;56.08
66119;DHT22;52912;48.564;9.302;2022-10-16T11:19:31;25.02;56.54
66119;DHT22;52912;48.564;9.302;2022-10-16T11:22:03;25.67;54.62
66119;DHT22;52912;48.564;9.302;2022-10-16T11:24:41;25.75;54.15
66119;DHT22;52912;48.564;9.302;2022-10-16T11:27:14;26.08;54.05
66119;DHT22;52912;48.564;9.302;2022-10-16T11:29:46;25.94;54.62
66119;DHT22;52912;48.564;9.302;2022-10-16T11:32:20;26.37;53.69
66119;DHT22;52912;48.564;9.302;2022-10-16T11:34:50;26.04;52.74
66119;DHT22;52912;48.564;9.302;2022-10-16T11:37:19;26.68;52.43
66119;DHT22;52912;48.564;9.302;2022-10-16T11:39:46;26.81;52.01
66119;DHT22;52912;48.564;9.302;2022-10-16T11:42:17;26.61;53.32
66119;DHT22;52912;48.564;9.302;2022-10-16T11:44:51;27.02;52.47
66119;DHT22;52912;48.564;9.302;2022-10-16T11:47:26;27.36;51.49
66119;DHT22;52912;48.564;9.302;2022-10-16T11:49:57;27.60;51.06
66119;DHT22;52912;48.564;9.302;2022-10-16T11:52:25;27.54;50.84
66119;DHT22;52912;48.564;9.302;2022-10-16T11:54:56;27.26;51.08
66119;DHT22;52912;48.564;9.302;2022-10-16T11:57:27;26.35;51.68
66119;DHT22;52912;48.564;9.302;2022-10-16T11:59:56;26.58;51.55
66119;DHT22;52912;48.564;9.302;2022-10-16T12:02:44;27.06;51.22
66119;DHT22;52912;48.564;9.302;2022-10-16T12:05:24;27.32;50.89
66119;DHT22;52912;48.564;9.302;2022-10-16T12:07:57;27.35;52.40
66119;DHT22;52912;48.564;9.302;2022-10-16T12:10:28;27.46;52.81
66119;DHT22;52912;48.564;9.302;2022-10-16T12:12:55;27.40;50.61
66119;DHT22;52912;48.564;9.302;2022-10-16T12:15:24;27.46;51.57
66119;DHT22;52912;48.564;9.302;2022-10-16T12:17:50;27.13;51.69
66119;DHT22;52912;48.564;9.302;2022-10-16T12:20:26;27.12;53.24
66119;DHT22;52912;48.564;9.302;2022-10-16T12:22:54;27.46;53.09
66119;DHT22;52912;48.564;9.302;2022-10-16T12:25:25;27.61;51.87
66119;DHT22;52912;48.564;9.302;2022-10-16T12:27:57;27.58;51.66
66119;DHT22;52912;48.564;9.302;2022-10-16T12:30:25;27.57;50.36
66119;DHT22;52912;48.564;9.302;2022-10-16T12:32:55;27.65;50.29
66119;DHT22;52912;48.564;9.302;2022-10-16T12:35:23;27.81;50.75
66119;DHT22;52912;48.564;9.302;2022-10-16T12:37:49;27.82;49.81
66119;DHT22;52912;48.564;9.302;2022-10-16T12:40:25;27.70;50.33
66119;DHT22;52912;48.564;9.302;2022-10-16T12:42:51;27.67;51.49
66119;DHT22;52912;48.564;9.302;2022-10-16T12:45:27;27.97;49.62
66119;DHT22;52912;48.564;9.302;2022-10-16T12:47:54;27.92;49.40
66119;DHT22;52912;48.564;9.302;2022-10-16T12:50:29;27.57;50.35
66119;DHT22;52912;48.564;9.302;2022-10-16T12:52:55;27.67;50.66
66119;DHT22;52912;48.564;9.302;2022-10-16T12:55:21;27.64;51.52
66119;DHT22;52912;48.564;9.302;2022-10-16T12:58:02;27.94;48.94
66119;DHT22;52912;48.564;9.302;2022-10-16T13:00:38;27.91;48.70
66119;DHT22;52912;48.564;9.302;2022-10-16T13:03:34;28.18;47.98
66119;DHT22;52912;48.564;9.302;2022-10-16T13:06:16;28.16;47.72
66119;DHT22;52912;48.564;9.302;2022-10-16T13:08:46;28.42;47.75
66119;DHT22;52912;48.564;9.302;2022-10-16T13:11:22;28.67;47.85
66119;DHT22;52912;48.564;9.302;2022-10-16T13:14:01;29.09;47.63
66119;DHT22;52912;48.564;9.302;2022-10-16T13:16:40;28.92;46.71
66119;DHT22;52912;48.564;9.302;2022-10-16T13:19:16;29.06;46.24
66119;DHT22;52912;48.564;9.302;2022-10-16T13:21:48;29.06;45.63
66119;DHT22;52912;48.564;9.302;2022-10-16T13:24:25;29.05;46.30
66119;DHT22;52912;48.564;9.302;2022-10-16T13:26:56;29.01;47.89
66119;DHT22;52912;48.564;9.302;2022-10-16T13:29:23;28.88;47.60
66119;DHT22;52912;48.564;9.302;2022-10-16T13:31:50;28.92;47.28
66119;DHT22;52912;48.564;9.302;2022-10-16T13:34:17;29.04;46.43
66119;DHT22;52912;48.564;9.302;2022-10-16T13:36:45;29.12;46.42
66119;DHT22;52912;48.564;9.302;2022-10-16T13:39:13;28.75;46.44
66119;DHT22;52912;48.564;9.302;2022-10-16T13:41:39;28.39;48.11
66119;DHT22;52912;48.564;9.302;2022-10-16T13:44:05;28.15;47.40
66119;DHT22;52912;48.564;9.302;2022-10-16T13:46:34;28.26;48.19
66119;DHT22;52912;48.564;9.302;2022-10-16T13:49:04;28.53;48.72
66119;DHT22;52912;48.564;9.302;2022-10-16T13:51:31;29.05;48.88
66119;DHT22;52912;48.564;9.302;2022-10-16T13:53:58;28.78;47.55
66119;DHT22;52912;48.564;9.302;2022-10-16T13:56:26;28.70;48.34
66119;DHT22;52912;48.564;9.302;2022-10-16T13:59:00;28.43;48.73
66119;DHT22;52912;48.564;9.302;2022-10-16T14:01:28;28.52;48.77
66119;DHT22;52912;48.564;9.302;2022-10-16T14:04:02;28.19;49.17
66119;DHT22;52912;48.564;9.302;2022-10-16T14:06:28;27.90;49.22
66119;DHT22;52912;48.564;9.302;2022-10-16T14:08:59;27.65;51.56
66119;DHT22;52912;48.564;9.302;2022-10-16T14:11:25;27.58;50.31
66119;DHT22;52912;48.564;9.302;2022-10-16T14:13:52;27.43;51.64
66119;DHT22;52912;48.564;9.302;2022-10-16T14:16:19;27.03;52.76
66119;DHT22;52912;48.564;9.302;2022-10-16T14:18:46;27.02;53.96
66119;DHT22;52912;48.564;9.302;2022-10-16T14:21:18;27.03;52.20
66119;DHT22;52912;48.564;9.302;2022-10-16T14:23:43;27.05;52.76
66119;DHT22;52912;48.564;9.302;2022-10-16T14:26:14;26.83;54.95
66119;DHT22;52912;48.564;9.302;2022-10-16T14:28:40;26.74;55.07
66119;DHT22;52912;48.564;9.302;2022-10-16T14:31:25;26.75;54.94
66119;DHT22;52912;48.564;9.302;2022-10-16T14:33:51;26.41;56.41
66119;DHT22;52912;48.564;9.302;2022-10-16T14:36:18;26.40;57.34
66119;DHT22;52912;48.564;9.302;2022-10-16T14:38:49;26.19;56.65
66119;DHT22;52912;48.564;9.302;2022-10-16T14:41:20;26.21;55.36
66119;DHT22;52912;48.564;9.302;2022-10-16T14:43:50;25.96;59.46
66119;DHT22;52912;48.564;9.302;2022-10-16T14:46:18;25.77;60.71
66119;DHT22;52912;48.564;9.302;2022-10-16T14:48:45;25.60;60.72
66119;DHT22;52912;48.564;9.302;2022-10-16T14:51:13;25.22;62.66
66119;DHT22;52912;48.564;9.302;2022-10-16T14:53:40;25.12;62.36
66119;DHT22;52912;48.564;9.302;2022-10-16T14:56:07;25.19;60.42
66119;DHT22;52912;48.564;9.302;2022-10-16T14:58:32;25.27;60.37
66119;DHT22;52912;48.564;9.302;2022-10-16T15:00:58;25.37;58.49
66119;DHT22;52912;48.564;9.302;2022-10-16T15:03:23;25.43;58.70
66119;DHT22;52912;48.564;9.302;2022-10-16T15:05:49;25.26;63.19
66119;DHT22;52912;48.564;9.302;2022-10-16T15:08:14;24.96;63.94
66119;DHT22;52912;48.564;9.302;2022-10-16T15:10:43;24.70;64.15
66119;DHT22;52912;48.564;9.302;2022-10-16T15:13:11;24.64;65.69
66119;DHT22;52912;48.564;9.302;2022-10-16T15:15:38;24.56;65.83
66119;DHT22;52912;48.564;9.302;2022-10-16T15:18:05;24.37;65.02
66119;DHT22;52912;48.564;9.302;2022-10-16T15:20:32;24.19;64.25
66119;DHT22;52912;48.564;9.302;2022-10-16T15:22:58;24.10;65.05
66119;DHT22;52912;48.564;9.302;2022-10-16T15:25:31;24.34;64.52
66119;DHT22;52912;48.564;9.302;2022-10-16T15:27:58;24.09;65.42
66119;DHT22;52912;48.564;9.302;2022-10-16T15:30:24;23.71;66.95
66119;DHT22;52912;48.564;9.302;2022-10-16T15:32:49;23.53;65.23
66119;DHT22;52912;48.564;9.302;2022-10-16T15:35:14;23.51;65.10
66119;DHT22;52912;48.564;9.302;2022-10-16T15:37:40;23.20;65.23
66119;DHT22;52912;48.564;9.302;2022-10-16T15:40:06;23.24;65.40
66119;DHT22;52912;48.564;9.302;2022-10-16T15:42:32;23.29;65.10
66119;DHT22;52912;48.564;9.302;2022-10-16T15:44:58;23.26;65.45